createdAt,value
2019-02-26T00:01:29.190Z,103237.00
2019-02-26T00:03:59.700Z,103243.00
2019-02-26T00:06:31.386Z,103235.00
2019-02-26T00:09:03.549Z,103229.00
2019-02-26T00:11:33.305Z,103230.00
2019-02-26T00:14:03.210Z,103235.00
2019-02-26T00:16:35.389Z,103241.00
2019-02-26T00:19:05.012Z,103234.00
2019-02-26T00:21:35.248Z,103239.00
2019-02-26T00:24:05.424Z,103225.00
2019-02-26T00:26:36.240Z,103229.00
2019-02-26T00:29:08.431Z,103228.00
2019-02-26T00:31:38.000Z,103228.00
2019-02-26T00:34:08.268Z,103229.00
2019-02-26T00:36:38.754Z,103229.00
2019-02-26T00:39:08.499Z,103228.00
2019-02-26T00:41:40.151Z,103236.00
2019-02-26T00:44:09.382Z,103235.00
2019-02-26T00:46:39.472Z,103237.00
2019-02-26T00:49:09.022Z,103235.00
2019-02-26T00:51:39.820Z,103241.00
2019-02-26T00:54:09.735Z,103237.00
2019-02-26T00:56:41.006Z,103234.00
2019-02-26T00:59:10.510Z,103234.00
2019-02-26T01:01:40.008Z,103244.00
2019-02-26T01:04:09.460Z,103238.00
2019-02-26T01:06:39.005Z,103239.00
2019-02-26T01:09:11.320Z,103237.00
2019-02-26T01:11:42.818Z,103231.00
2019-02-26T01:14:13.605Z,103223.00
2019-02-26T01:16:44.187Z,103228.00
2019-02-26T01:19:15.275Z,103228.00
2019-02-26T01:21:45.710Z,103221.00
2019-02-26T01:24:15.173Z,103217.00
2019-02-26T01:26:44.686Z,103209.00
2019-02-26T01:29:18.521Z,103204.00
2019-02-26T01:31:45.331Z,103199.00
2019-02-26T01:34:15.864Z,103207.00
2019-02-26T01:36:47.792Z,103209.00
2019-02-26T01:39:19.230Z,103217.00
2019-02-26T01:41:50.372Z,103215.00
2019-02-26T01:44:19.615Z,103208.00
2019-02-26T01:46:49.154Z,103205.00
2019-02-26T01:49:19.220Z,103205.00
2019-02-26T01:51:51.701Z,103204.00
2019-02-26T01:54:21.180Z,103197.00
2019-02-26T01:56:52.678Z,103192.00
2019-02-26T01:59:21.877Z,103184.00
2019-02-26T02:01:53.270Z,103191.00
2019-02-26T02:04:22.669Z,103182.00
2019-02-26T02:06:54.323Z,103175.00
2019-02-26T02:09:25.108Z,103167.00
2019-02-26T02:11:57.429Z,103164.00
2019-02-26T02:14:25.754Z,103159.00
2019-02-26T02:16:55.311Z,103163.00
2019-02-26T02:19:25.674Z,103155.00
2019-02-26T02:21:58.107Z,103161.00
2019-02-26T02:24:27.241Z,103158.00
2019-02-26T02:26:58.595Z,103162.00
2019-02-26T02:29:28.577Z,103161.00
2019-02-26T02:32:01.463Z,103158.00
2019-02-26T02:34:32.624Z,103166.00
2019-02-26T02:37:00.695Z,103165.00
2019-02-26T02:39:30.138Z,103163.00
2019-02-26T02:41:59.625Z,103165.00
2019-02-26T02:44:29.090Z,103167.00
2019-02-26T02:47:01.375Z,103163.00
2019-02-26T02:49:32.541Z,103166.00
2019-02-26T02:52:01.474Z,103148.00
2019-02-26T02:54:31.745Z,103159.00
2019-02-26T02:57:02.500Z,103151.00
2019-02-26T02:59:34.024Z,103164.00
2019-02-26T03:02:03.673Z,103164.00
2019-02-26T03:04:34.682Z,103165.00
2019-02-26T03:07:04.422Z,103160.00
2019-02-26T03:09:37.103Z,103165.00
2019-02-26T03:12:05.308Z,103166.00
2019-02-26T03:14:36.462Z,103156.00
2019-02-26T03:17:08.353Z,103147.00
2019-02-26T03:19:40.362Z,103146.00
2019-02-26T03:22:09.819Z,103155.00
2019-02-26T03:24:39.664Z,103145.00
2019-02-26T03:27:09.101Z,103152.00
2019-02-26T03:29:38.573Z,103158.00
2019-02-26T03:32:08.017Z,103164.00
2019-02-26T03:34:37.538Z,103146.00
2019-02-26T03:37:08.334Z,103137.00
2019-02-26T03:39:38.219Z,103145.00
2019-02-26T03:42:08.222Z,103143.00
2019-02-26T03:44:39.092Z,103141.00
2019-02-26T03:47:08.543Z,103136.00
2019-02-26T03:49:41.662Z,103129.00
2019-02-26T03:52:09.329Z,103134.00
2019-02-26T03:54:40.351Z,103135.00
2019-02-26T03:57:11.346Z,103139.00
2019-02-26T03:59:41.408Z,103158.00
2019-02-26T04:02:11.905Z,103159.00
2019-02-26T04:04:42.260Z,103162.00
2019-02-26T04:07:11.880Z,103164.00
2019-02-26T04:09:44.100Z,103159.00
2019-02-26T04:12:15.002Z,103170.00
2019-02-26T04:14:43.968Z,103165.00
2019-02-26T04:17:13.422Z,103166.00
2019-02-26T04:19:44.526Z,103167.00
2019-02-26T04:22:29.618Z,103158.00
2019-02-26T04:25:15.504Z,103155.00
2019-02-26T04:28:13.595Z,103153.00
2019-02-26T04:30:56.362Z,103157.00
2019-02-26T04:34:01.130Z,103147.00
2019-02-26T04:36:34.358Z,103159.00
2019-02-26T04:39:34.871Z,103155.00
2019-02-26T04:42:32.759Z,103153.00
2019-02-26T04:45:32.543Z,103153.00
2019-02-26T04:48:06.661Z,103156.00
2019-02-26T04:50:38.612Z,103148.00
2019-02-26T04:53:10.539Z,103152.00
2019-02-26T04:55:41.353Z,103152.00
2019-02-26T04:58:12.435Z,103155.00
2019-02-26T05:00:41.116Z,103166.00
2019-02-26T05:03:14.072Z,103156.00
2019-02-26T05:05:41.909Z,103151.00
2019-02-26T05:08:12.823Z,103158.00
2019-02-26T05:10:42.572Z,103155.00
2019-02-26T05:13:12.080Z,103156.00
2019-02-26T05:15:43.528Z,103156.00
2019-02-26T05:18:12.763Z,103151.00
2019-02-26T05:20:44.651Z,103158.00
2019-02-26T05:23:13.509Z,103163.00
2019-02-26T05:25:44.849Z,103165.00
2019-02-26T05:28:15.646Z,103167.00
2019-02-26T05:30:46.431Z,103174.00
2019-02-26T05:33:18.380Z,103174.00
2019-02-26T05:35:48.998Z,103181.00
2019-02-26T05:38:19.086Z,103176.00
2019-02-26T05:40:50.867Z,103180.00
2019-02-26T05:43:20.430Z,103185.00
2019-02-26T05:45:53.907Z,103179.00
2019-02-26T05:48:23.786Z,103189.00
2019-02-26T05:50:53.401Z,103190.00
2019-02-26T05:53:22.846Z,103195.00
2019-02-26T05:55:54.068Z,103189.00
2019-02-26T05:58:23.543Z,103196.00
2019-02-26T06:00:53.117Z,103194.00
2019-02-26T06:03:22.650Z,103206.00
2019-02-26T06:05:54.925Z,103203.00
2019-02-26T06:08:25.896Z,103206.00
2019-02-26T06:10:54.590Z,103208.00
2019-02-26T06:13:24.097Z,103210.00
2019-02-26T06:15:55.243Z,103220.00
2019-02-26T06:18:24.930Z,103217.00
2019-02-26T06:20:55.906Z,103218.00
2019-02-26T06:23:28.063Z,103224.00
2019-02-26T06:26:00.826Z,103223.00
2019-02-26T06:28:28.447Z,103232.00
2019-02-26T06:30:57.910Z,103230.00
2019-02-26T06:33:31.835Z,103227.00
2019-02-26T06:35:59.863Z,103219.00
2019-02-26T06:38:32.210Z,103220.00
2019-02-26T06:41:01.166Z,103224.00
2019-02-26T06:43:31.010Z,103218.00
2019-02-26T06:46:02.590Z,103217.00
2019-02-26T06:48:32.399Z,103217.00
2019-02-26T06:51:02.709Z,103212.00
2019-02-26T06:53:33.284Z,103212.00
2019-02-26T06:56:02.837Z,103212.00
2019-02-26T06:58:32.326Z,103207.00
2019-02-26T07:01:01.938Z,103210.00
2019-02-26T07:03:31.480Z,103216.00
2019-02-26T07:06:03.147Z,103214.00
2019-02-26T07:08:33.728Z,103220.00
2019-02-26T07:11:03.940Z,103222.00
2019-02-26T07:13:34.304Z,103220.00
2019-02-26T07:16:05.305Z,103227.00
2019-02-26T07:18:34.956Z,103219.00
2019-02-26T07:21:04.411Z,103219.00
2019-02-26T07:23:35.087Z,103213.00
2019-02-26T07:26:05.144Z,103213.00
2019-02-26T07:28:34.604Z,103212.00
2019-02-26T07:31:05.514Z,103207.00
2019-02-26T07:33:36.973Z,103208.00
2019-02-26T07:36:06.638Z,103199.00
2019-02-26T07:38:41.156Z,103198.00
2019-02-26T07:41:07.435Z,103191.00
2019-02-26T07:43:41.057Z,103195.00
2019-02-26T07:46:10.429Z,103183.00
2019-02-26T07:48:39.367Z,103187.00
2019-02-26T07:51:08.929Z,103186.00
2019-02-26T07:53:42.001Z,103190.00
2019-02-26T07:56:09.762Z,103186.00
2019-02-26T07:58:41.212Z,103186.00
2019-02-26T08:01:10.539Z,103178.00
2019-02-26T08:03:42.048Z,103172.00
2019-02-26T08:06:12.267Z,103173.00
2019-02-26T08:08:44.205Z,103173.00
2019-02-26T08:11:14.921Z,103173.00
2019-02-26T08:13:44.410Z,103171.00
2019-02-26T08:16:13.970Z,103172.00
2019-02-26T08:18:43.437Z,103164.00
2019-02-26T08:21:13.019Z,103153.00
2019-02-26T08:23:43.659Z,103156.00
2019-02-26T08:26:15.532Z,103157.00
2019-02-26T08:28:45.817Z,103165.00
2019-02-26T08:31:18.545Z,103161.00
2019-02-26T08:33:50.937Z,103169.00
2019-02-26T08:36:18.886Z,103169.00
2019-02-26T08:38:48.412Z,103170.00
2019-02-26T08:41:17.887Z,103173.00
2019-02-26T08:43:49.649Z,103169.00
2019-02-26T08:46:18.970Z,103167.00
2019-02-26T08:48:50.651Z,103169.00
2019-02-26T08:51:21.526Z,103162.00
2019-02-26T08:53:51.838Z,103169.00
2019-02-26T08:56:23.833Z,103166.00
2019-02-26T08:58:58.558Z,103166.00
2019-02-26T09:01:28.405Z,103169.00
2019-02-26T09:03:58.935Z,103169.00
2019-02-26T09:06:29.050Z,103168.00
2019-02-26T09:09:00.151Z,103172.00
2019-02-26T09:11:31.880Z,103168.00
2019-02-26T09:14:03.878Z,103164.00
2019-02-26T09:16:32.781Z,103162.00
2019-02-26T09:19:02.491Z,103158.00
2019-02-26T09:21:31.944Z,103158.00
2019-02-26T09:24:04.245Z,103155.00
2019-02-26T09:26:32.845Z,103147.00
2019-02-26T09:29:02.322Z,103146.00
2019-02-26T09:31:31.795Z,103143.00
2019-02-26T09:34:01.383Z,103136.00
2019-02-26T09:36:31.053Z,103138.00
2019-02-26T09:39:00.656Z,103130.00
2019-02-26T09:41:30.142Z,103134.00
2019-02-26T09:44:01.906Z,103137.00
2019-02-26T09:46:31.809Z,103130.00
2019-02-26T09:49:03.125Z,103134.00
2019-02-26T09:51:35.170Z,103143.00
2019-02-26T09:54:05.099Z,103138.00
2019-02-26T09:56:34.674Z,103144.00
2019-02-26T09:59:06.897Z,103135.00
2019-02-26T10:01:37.720Z,103142.00
2019-02-26T10:04:07.201Z,103141.00
2019-02-26T10:06:37.938Z,103136.00
2019-02-26T10:09:10.726Z,103133.00
2019-02-26T10:11:41.920Z,103142.00
2019-02-26T10:14:12.613Z,103143.00
2019-02-26T10:16:41.974Z,103139.00
2019-02-26T10:19:12.635Z,103140.00
2019-02-26T10:21:44.844Z,103137.00
2019-02-26T10:24:14.191Z,103133.00
2019-02-26T10:26:43.693Z,103127.00
2019-02-26T10:29:13.156Z,103133.00
2019-02-26T10:31:42.677Z,103129.00
2019-02-26T10:34:15.105Z,103128.00
2019-02-26T10:36:46.464Z,103132.00
2019-02-26T10:39:15.682Z,103129.00
2019-02-26T10:41:47.611Z,103121.00
2019-02-26T10:44:17.069Z,103113.00
2019-02-26T10:46:46.575Z,103115.00
2019-02-26T10:49:16.135Z,103114.00
2019-02-26T10:51:45.739Z,103110.00
2019-02-26T10:54:17.935Z,103113.00
2019-02-26T10:56:46.543Z,103108.00
2019-02-26T10:59:19.510Z,103111.00
2019-02-26T11:01:51.618Z,103104.00
2019-02-26T11:04:18.862Z,103103.00
2019-02-26T11:06:48.339Z,103106.00
2019-02-26T11:09:21.829Z,103108.00
2019-02-26T11:11:49.122Z,103116.00
2019-02-26T11:14:19.475Z,103105.00
2019-02-26T11:16:49.231Z,103113.00
2019-02-26T11:19:18.718Z,103117.00
2019-02-26T11:21:50.794Z,103115.00
2019-02-26T11:24:19.414Z,103112.00
2019-02-26T11:26:48.898Z,103107.00
2019-02-26T11:29:18.332Z,103112.00
2019-02-26T11:31:49.734Z,103113.00
2019-02-26T11:34:19.050Z,103110.00
2019-02-26T11:36:48.575Z,103101.00
2019-02-26T11:39:18.053Z,103103.00
2019-02-26T11:41:48.271Z,103103.00
2019-02-26T11:44:20.574Z,103095.00
2019-02-26T11:46:51.462Z,103103.00
2019-02-26T11:49:21.830Z,103100.00
2019-02-26T11:51:51.675Z,103099.00
2019-02-26T11:54:21.168Z,103098.00
2019-02-26T11:56:52.535Z,103102.00
2019-02-26T11:59:22.109Z,103097.00
2019-02-26T12:01:51.630Z,103102.00
2019-02-26T12:04:21.074Z,103096.00
2019-02-26T12:06:50.603Z,103092.00
2019-02-26T12:09:20.065Z,103094.00
2019-02-26T12:11:49.524Z,103091.00
2019-02-26T12:14:21.563Z,103089.00
2019-02-26T12:16:50.262Z,103086.00
2019-02-26T12:19:19.693Z,103083.00
2019-02-26T12:21:49.608Z,103084.00
2019-02-26T12:24:20.434Z,103078.00
2019-02-26T12:26:52.187Z,103075.00
2019-02-26T12:29:23.542Z,103071.00
2019-02-26T12:31:55.540Z,103072.00
2019-02-26T12:34:24.245Z,103070.00
2019-02-26T12:36:57.243Z,103066.00
2019-02-26T12:39:27.949Z,103059.00
2019-02-26T12:41:56.606Z,103057.00
2019-02-26T12:44:28.828Z,103050.00
2019-02-26T12:47:00.416Z,103046.00
2019-02-26T12:49:29.494Z,103041.00
2019-02-26T12:52:03.319Z,103040.00
2019-02-26T12:54:33.564Z,103034.00
2019-02-26T12:57:04.185Z,103037.00
2019-02-26T12:59:34.066Z,103028.00
2019-02-26T13:02:05.552Z,103032.00
2019-02-26T13:04:37.723Z,103023.00
2019-02-26T13:07:08.686Z,103020.00
2019-02-26T13:09:41.353Z,103023.00
2019-02-26T13:12:11.421Z,103014.00
2019-02-26T13:14:40.743Z,103012.00
2019-02-26T13:17:13.679Z,103017.00
2019-02-26T13:19:41.875Z,103003.00
2019-02-26T13:22:13.737Z,103007.00
2019-02-26T13:24:42.854Z,103011.00
2019-02-26T13:27:12.421Z,103002.00
2019-02-26T13:29:47.574Z,103001.00
2019-02-26T13:32:17.250Z,103002.00
2019-02-26T13:34:44.359Z,102994.00
2019-02-26T13:37:13.896Z,102997.00
2019-02-26T13:39:45.551Z,102999.00
2019-02-26T13:42:19.273Z,102991.00
2019-02-26T13:44:46.140Z,102991.00
2019-02-26T13:47:15.583Z,102993.00
2019-02-26T13:49:45.073Z,102981.00
2019-02-26T13:52:14.544Z,102980.00
2019-02-26T13:54:44.018Z,102978.00
2019-02-26T13:57:13.507Z,102974.00
2019-02-26T13:59:42.980Z,102972.00
2019-02-26T14:02:12.534Z,102971.00
2019-02-26T14:04:42.508Z,102971.00
2019-02-26T14:07:12.363Z,102973.00
2019-02-26T14:09:41.963Z,102963.00
2019-02-26T14:12:11.710Z,102968.00
2019-02-26T14:14:41.610Z,102960.00
2019-02-26T14:17:11.270Z,102960.00
2019-02-26T14:19:40.874Z,102958.00
2019-02-26T14:22:10.431Z,102955.00
2019-02-26T14:24:39.977Z,102957.00
2019-02-26T14:27:09.501Z,102949.00
2019-02-26T14:29:38.985Z,102940.00
2019-02-26T14:32:08.556Z,102939.00
2019-02-26T14:34:37.917Z,102934.00
2019-02-26T14:37:07.375Z,102939.00
2019-02-26T14:39:36.852Z,102936.00
2019-02-26T14:42:06.487Z,102932.00
2019-02-26T14:44:36.013Z,102935.00
2019-02-26T14:47:05.815Z,102935.00
2019-02-26T14:49:35.363Z,102932.00
2019-02-26T14:52:04.936Z,102932.00
2019-02-26T14:54:34.413Z,102932.00
2019-02-26T14:57:04.993Z,102931.00
2019-02-26T14:59:34.444Z,102934.00
2019-02-26T15:02:03.971Z,102928.00
2019-02-26T15:04:33.537Z,102928.00
2019-02-26T15:07:03.017Z,102925.00
2019-02-26T15:09:32.681Z,102918.00
2019-02-26T15:12:02.239Z,102919.00
2019-02-26T15:14:31.784Z,102915.00
2019-02-26T15:17:01.400Z,102911.00
2019-02-26T15:19:30.880Z,102916.00
2019-02-26T15:22:00.363Z,102923.00
2019-02-26T15:24:30.213Z,102914.00
2019-02-26T15:26:59.921Z,102913.00
2019-02-26T15:29:29.405Z,102916.00
2019-02-26T15:31:58.951Z,102917.00
2019-02-26T15:34:28.517Z,102909.00
2019-02-26T15:36:58.089Z,102917.00
2019-02-26T15:39:27.555Z,102913.00
2019-02-26T15:41:57.141Z,102918.00
2019-02-26T15:44:28.830Z,102911.00
2019-02-26T15:47:01.981Z,102910.00
2019-02-26T15:49:29.972Z,102918.00
2019-02-26T15:51:59.739Z,102906.00
2019-02-26T15:54:29.313Z,102914.00
2019-02-26T15:57:00.509Z,102910.00
2019-02-26T15:59:30.275Z,102906.00
2019-02-26T16:01:59.982Z,102908.00
2019-02-26T16:04:29.818Z,102906.00
2019-02-26T16:06:59.643Z,102906.00
2019-02-26T16:09:29.257Z,102908.00
2019-02-26T16:11:58.925Z,102902.00
2019-02-26T16:14:28.753Z,102902.00
2019-02-26T16:16:58.463Z,102902.00
2019-02-26T16:19:27.984Z,102891.00
2019-02-26T16:21:57.513Z,102896.00
2019-02-26T16:24:26.990Z,102897.00
2019-02-26T16:26:56.432Z,102896.00
2019-02-26T16:29:25.922Z,102904.00
2019-02-26T16:31:57.261Z,102900.00
2019-02-26T16:34:26.810Z,102897.00
2019-02-26T16:36:56.336Z,102898.00
2019-02-26T16:39:25.902Z,102891.00
2019-02-26T16:41:55.821Z,102888.00
2019-02-26T16:44:25.430Z,102891.00
2019-02-26T16:46:54.993Z,102890.00
2019-02-26T16:49:25.839Z,102883.00
2019-02-26T16:51:56.023Z,102891.00
2019-02-26T16:54:25.714Z,102895.00
2019-02-26T16:56:55.295Z,102900.00
2019-02-26T16:59:24.813Z,102900.00
2019-02-26T17:01:54.941Z,102899.00
2019-02-26T17:04:25.259Z,102905.00
2019-02-26T17:06:59.709Z,102905.00
2019-02-26T17:09:43.114Z,102900.00
2019-02-26T17:12:29.201Z,102909.00
2019-02-26T17:15:24.013Z,102906.00
2019-02-26T17:45:54.674Z,102906.00
2019-02-26T17:48:24.297Z,102908.00
2019-02-26T17:50:54.054Z,102912.00
2019-02-26T17:53:27.681Z,102910.00
2019-02-26T17:55:54.871Z,102916.00
2019-02-26T17:58:24.530Z,102912.00
2019-02-26T18:00:55.725Z,102921.00
2019-02-26T18:03:25.791Z,102913.00
2019-02-26T18:05:55.523Z,102914.00
2019-02-26T18:08:25.071Z,102913.00
2019-02-26T18:10:54.644Z,102918.00
2019-02-26T18:13:24.177Z,102914.00
2019-02-26T18:15:56.076Z,102910.00
2019-02-26T18:18:24.841Z,102918.00
2019-02-26T18:20:54.481Z,102914.00
2019-02-26T18:23:23.941Z,102914.00
2019-02-26T18:25:53.567Z,102919.00
2019-02-26T18:28:23.060Z,102918.00
2019-02-26T18:30:52.527Z,102920.00
2019-02-26T18:33:22.065Z,102923.00
2019-02-26T18:35:51.778Z,102918.00
2019-02-26T18:38:21.324Z,102911.00
2019-02-26T18:40:50.873Z,102913.00
2019-02-26T18:43:20.488Z,102915.00
2019-02-26T18:45:49.964Z,102912.00
2019-02-26T18:48:19.424Z,102920.00
2019-02-26T18:50:49.070Z,102913.00
2019-02-26T18:53:18.525Z,102921.00
2019-02-26T18:55:48.009Z,102909.00
2019-02-26T18:58:17.568Z,102909.00
2019-02-26T19:00:47.039Z,102903.00
2019-02-26T19:03:17.126Z,102905.00
2019-02-26T19:05:46.623Z,102907.00
2019-02-26T19:08:16.095Z,102906.00
2019-02-26T19:10:45.578Z,102912.00
2019-02-26T19:13:15.090Z,102905.00
2019-02-26T19:15:47.637Z,102905.00
2019-02-26T19:18:15.881Z,102905.00
2019-02-26T19:20:48.861Z,102902.00
2019-02-26T19:23:16.594Z,102910.00
2019-02-26T19:25:46.280Z,102901.00
2019-02-26T19:28:15.791Z,102900.00
2019-02-26T19:30:45.539Z,102904.00
2019-02-26T19:33:15.076Z,102905.00
2019-02-26T19:35:44.676Z,102905.00
2019-02-26T19:38:14.258Z,102911.00
2019-02-26T19:41:15.580Z,102903.00
2019-02-26T19:43:45.359Z,102904.00
2019-02-26T19:46:17.744Z,102897.00
2019-02-26T19:48:47.515Z,102897.00
2019-02-26T19:51:16.990Z,102898.00
2019-02-26T19:53:46.451Z,102898.00
2019-02-26T19:56:15.952Z,102900.00
2019-02-26T19:58:45.448Z,102897.00
2019-02-26T20:01:15.017Z,102888.00
2019-02-26T20:03:44.532Z,102889.00
2019-02-26T20:06:14.104Z,102886.00
2019-02-26T20:08:43.584Z,102882.00
2019-02-26T20:11:13.125Z,102879.00
2019-02-26T20:13:42.582Z,102880.00
2019-02-26T20:16:12.159Z,102877.00
2019-02-26T20:18:41.621Z,102879.00
2019-02-26T20:21:11.096Z,102878.00
2019-02-26T20:23:42.076Z,102868.00
2019-02-26T20:26:15.991Z,102873.00
2019-02-26T20:28:43.188Z,102868.00
2019-02-26T20:31:12.799Z,102868.00
2019-02-26T20:33:42.316Z,102871.00
2019-02-26T20:36:11.843Z,102870.00
2019-02-26T20:38:41.342Z,102872.00
2019-02-26T20:41:10.792Z,102861.00
2019-02-26T20:43:40.275Z,102868.00
2019-02-26T20:46:09.805Z,102859.00
2019-02-26T20:48:39.373Z,102865.00
2019-02-26T20:51:08.816Z,102864.00
2019-02-26T20:53:38.880Z,102863.00
2019-02-26T20:56:09.226Z,102866.00
2019-02-26T20:58:38.832Z,102852.00
2019-02-26T21:01:08.346Z,102852.00
2019-02-26T21:03:37.838Z,102855.00
2019-02-26T21:06:07.391Z,102854.00
2019-02-26T21:08:36.868Z,102842.00
2019-02-26T21:11:06.610Z,102850.00
2019-02-26T21:13:36.174Z,102846.00
2019-02-26T21:16:05.867Z,102848.00
2019-02-26T21:18:35.355Z,102848.00
2019-02-26T21:21:05.175Z,102851.00
2019-02-26T21:23:34.789Z,102849.00
2019-02-26T21:26:04.473Z,102852.00
2019-02-26T21:28:34.282Z,102846.00
2019-02-26T21:31:04.016Z,102847.00
2019-02-26T21:33:33.630Z,102846.00
2019-02-26T21:36:03.237Z,102847.00
2019-02-26T21:38:32.725Z,102848.00
2019-02-26T21:41:02.481Z,102845.00
2019-02-26T21:43:34.720Z,102849.00
2019-02-26T21:46:03.335Z,102846.00
2019-02-26T21:48:36.545Z,102845.00
2019-02-26T21:51:04.339Z,102849.00
2019-02-26T21:53:33.816Z,102851.00
2019-02-26T21:56:03.361Z,102844.00
2019-02-26T21:58:32.881Z,102854.00
2019-02-26T22:01:02.379Z,102849.00
2019-02-26T22:03:31.856Z,102846.00
2019-02-26T22:06:05.366Z,102839.00
2019-02-26T22:08:32.707Z,102842.00
2019-02-26T22:11:02.290Z,102843.00
2019-02-26T22:13:31.777Z,102846.00
2019-02-26T22:16:01.303Z,102850.00
2019-02-26T22:18:33.981Z,102842.00
2019-02-26T22:21:01.935Z,102840.00
2019-02-26T22:23:33.987Z,102842.00
2019-02-26T22:26:02.654Z,102835.00
2019-02-26T22:28:32.297Z,102834.00
2019-02-26T22:31:01.846Z,102829.00
2019-02-26T22:33:31.455Z,102831.00
2019-02-26T22:36:00.939Z,102832.00
2019-02-26T22:38:30.459Z,102837.00
2019-02-26T22:41:02.311Z,102838.00
2019-02-26T22:43:31.144Z,102835.00
2019-02-26T22:46:01.696Z,102828.00
2019-02-26T22:48:31.246Z,102832.00
2019-02-26T22:51:00.856Z,102842.00
2019-02-26T22:53:30.436Z,102836.00
2019-02-26T22:55:59.977Z,102824.00
2019-02-26T22:58:29.520Z,102823.00
2019-02-26T23:01:11.048Z,102823.00
2019-02-26T23:03:40.768Z,102817.00
2019-02-26T23:06:10.846Z,102825.00
2019-02-26T23:08:44.356Z,102815.00
2019-02-26T23:11:13.666Z,102812.00
2019-02-26T23:13:43.311Z,102812.00
2019-02-26T23:16:17.997Z,102812.00
2019-02-26T23:18:44.753Z,102810.00
2019-02-26T23:21:15.663Z,102812.00
2019-02-26T23:23:46.096Z,102809.00
2019-02-26T23:26:15.442Z,102803.00
2019-02-26T23:28:45.136Z,102806.00
2019-02-26T23:31:16.808Z,102799.00
2019-02-26T23:33:48.437Z,102806.00
2019-02-26T23:36:17.840Z,102805.00
2019-02-26T23:38:47.821Z,102798.00
2019-02-26T23:41:17.331Z,102801.00
2019-02-26T23:43:46.838Z,102796.00
2019-02-26T23:46:16.409Z,102797.00
2019-02-26T23:48:45.956Z,102799.00
2019-02-26T23:51:20.246Z,102794.00
2019-02-26T23:53:46.580Z,102789.00
2019-02-26T23:56:16.775Z,102789.00
2019-02-26T23:58:47.185Z,102784.00
